Council Bluffs, Iowa
Current Conditions -  °F | °C
As of 8:08 AM on Friday 24 Oct 2014 (Local Time) from KOMA Reporting Station
Haze Haze  
Wind Chill: 59°   Ceiling: 600
Heat Index: 59°   Visibility: 1mi
Dew Point: 56°   Wind: 14mph
Humidity: 90%   Direction: 170°S
Pressure: 29.93"   Gusts: NA
Location:  41.26°N, 95.85°W
Report Text: KOMA 241308Z 17012KT 1SM R14R/P6000FT BR BKN006 OVC009 15/13 A2993 RMK AO2 T01500133
Loading
Personal Weather Stations






























Interactive Weather Map
Tropical Storm Tracking
New forecast layout! Learn more

10-Day Weather Forecast

Advertisements
Track Severe Weather on mobile